Time;durP1;ratioP1;P1;durP2;ratioP2;P2;SDS_P1;SDS_P2;PMS_P1;PMS_P2;Temp;Humidity;BMP_temperature;BMP_pressure;BME280_temperature;BME280_humidity;BME280_pressure;Samples;Min_cycle;Max_cycle;Signal;HPM_P1;HPM_P2
2022/11/22 00:01:31;;;;;;;3.63;3.33;;;;;;;;;;5043079;28;20225;-71
2022/11/22 00:03:59;;;;;;;3.15;2.95;;;;;;;;;;5039838;28;20209;-71
2022/11/22 00:06:27;;;;;;;3.60;3.28;;;;;;;;;;5046105;28;20197;-71
2022/11/22 00:08:55;;;;;;;3.53;3.22;;;;;;;;;;5057131;28;20201;-71
2022/11/22 00:11:22;;;;;;;3.63;3.05;;;;;;;;;;5054200;28;20567;-71
2022/11/22 00:13:52;;;;;;;3.60;3.30;;;;;;;;;;5038303;28;20232;-71
2022/11/22 00:16:19;;;;;;;2.90;2.70;;;;;;;;;;5039252;28;20237;-71
2022/11/22 00:18:47;;;;;;;2.85;2.65;;;;;;;;;;5037970;28;20263;-71
2022/11/22 00:21:15;;;;;;;3.20;2.90;;;;;;;;;;5039471;28;20653;-71
2022/11/22 00:23:42;;;;;;;2.60;2.40;;;;;;;;;;5038576;28;20224;-71
2022/11/22 00:26:10;;;;;;;3.00;2.80;;;;;;;;;;5038132;28;20212;-70
2022/11/22 00:28:38;;;;;;;2.65;2.45;;;;;;;;;;5037843;28;20288;-71
2022/11/22 00:31:08;;;;;;;2.80;2.60;;;;;;;;;;5040342;28;20185;-71
2022/11/22 00:33:35;;;;;;;2.83;2.63;;;;;;;;;;5049411;28;20221;-71
2022/11/22 00:36:03;;;;;;;3.30;2.90;;;;;;;;;;5053740;28;20590;-71
2022/11/22 00:38:30;;;;;;;2.78;2.50;;;;;;;;;;5057009;28;20239;-70
2022/11/22 00:40:58;;;;;;;2.78;2.50;;;;;;;;;;5056918;28;20221;-72
2022/11/22 00:43:26;;;;;;;2.75;2.55;;;;;;;;;;5037890;28;20209;-70
2022/11/22 00:45:53;;;;;;;2.50;2.30;;;;;;;;;;5038252;28;20344;-71
2022/11/22 00:48:22;;;;;;;2.55;2.30;;;;;;;;;;5037606;28;20213;-71
2022/11/22 00:50:50;;;;;;;2.40;2.20;;;;;;;;;;5038542;28;20204;-70
2022/11/22 00:53:18;;;;;;;2.60;2.40;;;;;;;;;;5037636;28;20206;-71
2022/11/22 00:55:46;;;;;;;2.35;2.17;;;;;;;;;;5038767;28;20236;-71
2022/11/22 00:58:13;;;;;;;2.22;2.10;;;;;;;;;;5056584;28;20216;-71
2022/11/22 01:00:41;;;;;;;2.22;2.03;;;;;;;;;;5057672;28;20522;-71
2022/11/22 01:03:11;;;;;;;2.25;2.10;;;;;;;;;;5040125;28;20279;-71
2022/11/22 01:05:40;;;;;;;2.60;2.40;;;;;;;;;;5045161;28;20197;-71
2022/11/22 01:08:08;;;;;;;2.10;1.90;;;;;;;;;;5049850;28;20293;-71
2022/11/22 01:10:36;;;;;;;2.28;2.08;;;;;;;;;;5036987;28;20541;-70
2022/11/22 01:13:04;;;;;;;2.22;2.03;;;;;;;;;;5052459;28;20212;-71
2022/11/22 01:15:32;;;;;;;2.25;2.08;;;;;;;;;;5056506;28;20271;-71
2022/11/22 01:18:00;;;;;;;2.00;1.90;;;;;;;;;;5057314;28;20275;-71
2022/11/22 01:20:29;;;;;;;1.85;1.75;;;;;;;;;;5057017;28;20229;-71
2022/11/22 01:22:58;;;;;;;2.20;2.10;;;;;;;;;;5055890;28;20825;-71
2022/11/22 01:25:26;;;;;;;2.10;1.80;;;;;;;;;;5056638;28;20287;-71
2022/11/22 01:27:54;;;;;;;2.25;1.88;;;;;;;;;;5037769;28;20684;-71
2022/11/22 01:30:21;;;;;;;2.13;1.98;;;;;;;;;;5037297;28;20202;-71
2022/11/22 01:32:49;;;;;;;2.08;1.90;;;;;;;;;;5052428;28;20284;-71
2022/11/22 01:35:17;;;;;;;1.83;1.73;;;;;;;;;;5056770;28;20608;-71
2022/11/22 01:37:45;;;;;;;1.65;1.52;;;;;;;;;;5051699;28;20255;-70
2022/11/22 01:40:14;;;;;;;1.70;1.60;;;;;;;;;;5045300;28;20366;-70
2022/11/22 01:42:47;;;;;;;1.52;1.42;;;;;;;;;;5043937;28;20209;-70
2022/11/22 01:45:33;;;;;;;1.60;1.50;;;;;;;;;;5037100;28;20205;-72
2022/11/22 01:48:02;;;;;;;1.80;1.70;;;;;;;;;;5042946;28;20205;-71
2022/11/22 01:50:30;;;;;;;1.73;1.63;;;;;;;;;;5044486;28;20206;-71
2022/11/22 01:53:01;;;;;;;1.60;1.50;;;;;;;;;;5051558;28;20201;-71
2022/11/22 01:55:31;;;;;;;1.80;1.70;;;;;;;;;;5054495;28;20205;-70
2022/11/22 01:57:59;;;;;;;1.42;1.33;;;;;;;;;;5038406;28;20210;-71
2022/11/22 02:00:26;;;;;;;1.60;1.50;;;;;;;;;;5036248;28;20247;-71
2022/11/22 02:02:56;;;;;;;1.60;1.45;;;;;;;;;;5046158;28;20276;-71
2022/11/22 02:05:26;;;;;;;1.75;1.65;;;;;;;;;;5040201;28;20206;-70
2022/11/22 02:07:57;;;;;;;1.60;1.50;;;;;;;;;;5056887;28;20205;-70
2022/11/22 02:10:27;;;;;;;1.63;1.50;;;;;;;;;;5044849;28;20201;-71
2022/11/22 02:12:58;;;;;;;1.77;1.67;;;;;;;;;;5049072;28;20288;-71
2022/11/22 02:15:27;;;;;;;1.67;1.58;;;;;;;;;;5054634;28;20283;-71
2022/11/22 02:17:57;;;;;;;1.60;1.50;;;;;;;;;;5042414;28;20201;-71
2022/11/22 02:20:25;;;;;;;1.60;1.50;;;;;;;;;;5037719;28;20197;-70
2022/11/22 02:22:56;;;;;;;1.50;1.40;;;;;;;;;;5049727;28;20284;-71
2022/11/22 02:25:27;;;;;;;1.48;1.38;;;;;;;;;;5055499;28;20629;-71
2022/11/22 02:27:56;;;;;;;1.60;1.50;;;;;;;;;;5056916;28;20500;-71
2022/11/22 02:30:23;;;;;;;1.70;1.60;;;;;;;;;;5059275;28;20209;-71
2022/11/22 02:32:51;;;;;;;1.52;1.42;;;;;;;;;;5048853;28;20605;-71
2022/11/22 02:35:20;;;;;;;1.40;1.30;;;;;;;;;;5060521;28;20351;-71
2022/11/22 02:37:48;;;;;;;1.40;1.30;;;;;;;;;;5045401;28;20617;-71
2022/11/22 02:40:16;;;;;;;1.60;1.50;;;;;;;;;;5040473;28;20213;-71
2022/11/22 02:42:46;;;;;;;1.63;1.52;;;;;;;;;;5039880;28;20205;-71
2022/11/22 02:45:15;;;;;;;1.40;1.30;;;;;;;;;;5040337;28;20210;-71
2022/11/22 02:47:43;;;;;;;1.50;1.40;;;;;;;;;;5058893;28;20499;-71
2022/11/22 02:50:11;;;;;;;1.33;1.20;;;;;;;;;;5057453;28;20228;-70
2022/11/22 02:52:39;;;;;;;1.60;1.50;;;;;;;;;;5049041;28;20231;-71
2022/11/22 02:55:06;;;;;;;1.60;1.40;;;;;;;;;;5040115;28;20202;-70
2022/11/22 02:57:34;;;;;;;1.58;1.40;;;;;;;;;;5044758;28;20217;-70
2022/11/22 03:00:02;;;;;;;1.58;1.40;;;;;;;;;;5050571;28;20237;-71
2022/11/22 03:02:31;;;;;;;1.60;1.50;;;;;;;;;;5041603;28;20649;-70
2022/11/22 03:04:59;;;;;;;1.33;1.23;;;;;;;;;;5059377;28;20216;-71
2022/11/22 03:07:26;;;;;;;1.38;1.27;;;;;;;;;;5040106;28;20212;-70
2022/11/22 03:09:54;;;;;;;1.40;1.30;;;;;;;;;;5039843;28;20206;-71
2022/11/22 03:12:21;;;;;;;1.30;1.20;;;;;;;;;;5047432;28;20681;-70
2022/11/22 03:14:49;;;;;;;1.38;1.27;;;;;;;;;;5057297;28;20224;-71
2022/11/22 03:17:17;;;;;;;1.40;1.30;;;;;;;;;;5058318;28;20228;-71
2022/11/22 03:19:46;;;;;;;1.40;1.30;;;;;;;;;;5059622;28;20205;-71
2022/11/22 03:22:14;;;;;;;1.30;1.20;;;;;;;;;;5055762;28;20235;-71
2022/11/22 03:24:42;;;;;;;1.48;1.38;;;;;;;;;;5059228;28;20547;-71
2022/11/22 03:27:10;;;;;;;1.38;1.27;;;;;;;;;;5058895;28;20201;-70
2022/11/22 03:29:38;;;;;;;1.63;1.52;;;;;;;;;;5059241;28;20531;-70
2022/11/22 03:32:06;;;;;;;1.30;1.20;;;;;;;;;;5052327;28;20198;-70
2022/11/22 03:34:34;;;;;;;1.50;1.40;;;;;;;;;;5039316;28;20271;-70
2022/11/22 03:37:03;;;;;;;1.45;1.35;;;;;;;;;;5038719;28;20598;-70
2022/11/22 03:39:31;;;;;;;1.50;1.40;;;;;;;;;;5037863;28;20214;-72
2022/11/22 03:41:58;;;;;;;1.48;1.30;;;;;;;;;;5042288;28;20224;-70
2022/11/22 03:44:26;;;;;;;1.50;1.40;;;;;;;;;;5058555;28;20201;-70
2022/11/22 03:46:54;;;;;;;1.40;1.30;;;;;;;;;;5046685;28;20222;-70
2022/11/22 03:49:22;;;;;;;1.30;1.20;;;;;;;;;;5039129;28;20492;-71
2022/11/22 03:51:50;;;;;;;1.50;1.40;;;;;;;;;;5042087;28;20309;-70
2022/11/22 03:54:19;;;;;;;1.40;1.30;;;;;;;;;;5059001;28;20666;-70
2022/11/22 03:56:47;;;;;;;2.17;1.42;;;;;;;;;;5045671;28;20295;-70
2022/11/22 03:59:15;;;;;;;1.30;1.20;;;;;;;;;;5043260;28;20236;-71
2022/11/22 04:01:44;;;;;;;1.48;1.30;;;;;;;;;;5046551;28;20287;-71
2022/11/22 04:04:12;;;;;;;1.40;1.30;;;;;;;;;;5056732;28;20207;-71
2022/11/22 04:06:40;;;;;;;1.40;1.30;;;;;;;;;;5042154;28;20216;-70
2022/11/22 04:09:07;;;;;;;1.55;1.45;;;;;;;;;;5038581;28;20548;-71
2022/11/22 04:11:37;;;;;;;1.50;1.40;;;;;;;;;;5038538;28;20205;-71
2022/11/22 04:16:49;;;;;;;1.38;1.27;;;;;;;;;;5037916;28;20597;-71
2022/11/22 04:19:17;;;;;;;1.20;1.10;;;;;;;;;;5056736;28;20205;-70
2022/11/22 04:21:44;;;;;;;1.38;1.27;;;;;;;;;;5056208;28;20275;-71
2022/11/22 04:26:59;;;;;;;1.42;1.33;;;;;;;;;;5049503;28;20593;-71
2022/11/22 04:29:26;;;;;;;1.55;1.45;;;;;;;;;;5044785;28;20197;-71
2022/11/22 04:34:39;;;;;;;1.30;1.20;;;;;;;;;;5038052;28;20193;-70
2022/11/22 04:37:09;;;;;;;1.55;1.45;;;;;;;;;;5038168;28;20212;-71
2022/11/22 04:39:37;;;;;;;1.42;1.33;;;;;;;;;;5037714;28;20225;-71
2022/11/22 04:44:51;;;;;;;1.80;1.70;;;;;;;;;;5038988;28;20259;-70
2022/11/22 04:50:00;;;;;;;1.45;1.35;;;;;;;;;;5052685;28;20236;-70
2022/11/22 04:55:13;;;;;;;1.52;1.42;;;;;;;;;;5045534;28;20604;-71
2022/11/22 04:57:43;;;;;;;2.03;1.60;;;;;;;;;;5057577;28;20204;-70
2022/11/22 05:00:11;;;;;;;1.80;1.70;;;;;;;;;;5057574;28;20555;-70
2022/11/22 05:02:38;;;;;;;1.58;1.48;;;;;;;;;;5052052;28;20280;-71
2022/11/22 05:05:06;;;;;;;1.40;1.30;;;;;;;;;;5056450;28;20201;-70
2022/11/22 05:07:34;;;;;;;1.70;1.60;;;;;;;;;;5056445;28;20303;-71
2022/11/22 05:10:01;;;;;;;1.63;1.52;;;;;;;;;;5056480;28;20516;-70
2022/11/22 05:12:28;;;;;;;1.55;1.45;;;;;;;;;;5050540;28;20216;-70
2022/11/22 05:14:57;;;;;;;1.70;1.60;;;;;;;;;;5037873;28;20214;-71
2022/11/22 05:17:25;;;;;;;1.80;1.70;;;;;;;;;;5054990;28;20216;-70
2022/11/22 05:19:52;;;;;;;1.67;1.58;;;;;;;;;;5037869;28;20194;-71
2022/11/22 05:23:53;;;;;;;2.00;1.50;;;;;;;;;;5040843;28;20221;-70
2022/11/22 05:25:07;;;;;;;1.60;1.50;;;;;;;;;;5055712;28;20228;-70
2022/11/22 05:27:34;;;;;;;1.60;1.42;;;;;;;;;;5056168;28;20200;-71
2022/11/22 05:30:05;;;;;;;1.63;1.52;;;;;;;;;;5056249;28;20205;-71
2022/11/22 05:32:32;;;;;;;2.08;1.92;;;;;;;;;;5050311;28;20224;-70
2022/11/22 05:35:01;;;;;;;1.70;1.60;;;;;;;;;;5036041;28;20205;-70
2022/11/22 05:37:29;;;;;;;1.90;1.48;;;;;;;;;;5036332;28;20212;-71
2022/11/22 05:39:58;;;;;;;1.77;1.63;;;;;;;;;;5036026;28;20201;-70
2022/11/22 05:42:26;;;;;;;1.92;1.70;;;;;;;;;;5040595;28;20220;-71
2022/11/22 05:44:53;;;;;;;1.75;1.50;;;;;;;;;;5055478;28;20211;-71
2022/11/22 05:47:22;;;;;;;1.90;1.80;;;;;;;;;;5055281;28;20201;-71
2022/11/22 05:49:49;;;;;;;1.70;1.60;;;;;;;;;;5044266;28;20196;-70
2022/11/22 05:52:16;;;;;;;1.80;1.70;;;;;;;;;;5035222;28;20194;-70
2022/11/22 05:54:44;;;;;;;1.67;1.50;;;;;;;;;;5034731;28;20197;-70
2022/11/22 05:57:11;;;;;;;1.63;1.50;;;;;;;;;;5049612;28;20197;-70
2022/11/22 05:59:39;;;;;;;1.67;1.58;;;;;;;;;;5054467;28;20533;-70
2022/11/22 06:02:06;;;;;;;2.00;1.80;;;;;;;;;;5042319;28;20221;-71
2022/11/22 06:04:35;;;;;;;1.80;1.70;;;;;;;;;;5037310;28;20202;-70
2022/11/22 06:07:02;;;;;;;1.77;1.67;;;;;;;;;;5039367;28;20197;-71
2022/11/22 06:09:30;;;;;;;1.60;1.50;;;;;;;;;;5057629;28;20204;-70
2022/11/22 06:11:57;;;;;;;2.78;1.55;;;;;;;;;;5037512;28;20523;-71
2022/11/22 06:14:25;;;;;;;1.73;1.63;;;;;;;;;;5056417;28;20566;-70
2022/11/22 06:16:52;;;;;;;1.83;1.70;;;;;;;;;;5040152;28;20602;-70
2022/11/22 06:19:20;;;;;;;1.88;1.77;;;;;;;;;;5038207;28;20204;-71
2022/11/22 06:21:49;;;;;;;1.70;1.60;;;;;;;;;;5049237;28;20223;-71
2022/11/22 06:24:17;;;;;;;2.70;1.70;;;;;;;;;;5056347;28;20207;-71
2022/11/22 06:26:44;;;;;;;1.80;1.70;;;;;;;;;;5056768;28;20208;-71
2022/11/22 06:29:11;;;;;;;1.98;1.88;;;;;;;;;;5057201;28;20571;-71
2022/11/22 06:31:39;;;;;;;1.60;1.50;;;;;;;;;;5055984;28;20310;-71
2022/11/22 06:34:06;;;;;;;1.65;1.55;;;;;;;;;;5038803;28;20712;-70
2022/11/22 06:36:37;;;;;;;2.00;1.80;;;;;;;;;;5037564;28;20198;-70
2022/11/22 06:39:06;;;;;;;1.80;1.70;;;;;;;;;;5055013;28;20201;-70
2022/11/22 06:41:34;;;;;;;2.00;1.80;;;;;;;;;;5056767;28;20197;-71
2022/11/22 06:44:05;;;;;;;1.83;1.70;;;;;;;;;;5039448;28;20837;-70
2022/11/22 06:46:32;;;;;;;1.85;1.75;;;;;;;;;;5037060;28;20209;-70
2022/11/22 06:48:59;;;;;;;1.98;1.85;;;;;;;;;;5037760;28;20214;-71
2022/11/22 06:51:27;;;;;;;1.70;1.60;;;;;;;;;;5048624;28;20201;-71
2022/11/22 06:53:55;;;;;;;1.88;1.77;;;;;;;;;;5040862;28;20201;-71
2022/11/22 06:56:25;;;;;;;1.75;1.65;;;;;;;;;;5042906;28;20601;-71
2022/11/22 06:58:53;;;;;;;1.80;1.70;;;;;;;;;;5036988;28;20778;-71
2022/11/22 07:01:21;;;;;;;2.10;1.90;;;;;;;;;;5036981;28;20198;-71
2022/11/22 07:03:49;;;;;;;1.90;1.80;;;;;;;;;;5049242;28;20642;-70
2022/11/22 07:06:18;;;;;;;1.95;1.77;;;;;;;;;;5045103;28;20224;-71
2022/11/22 07:08:45;;;;;;;2.05;1.85;;;;;;;;;;5036963;28;20469;-71
2022/11/22 07:11:13;;;;;;;1.90;1.77;;;;;;;;;;5037274;28;20194;-70
2022/11/22 07:13:42;;;;;;;1.90;1.80;;;;;;;;;;5049579;28;20220;-70
2022/11/22 07:16:11;;;;;;;2.10;1.90;;;;;;;;;;5056743;28;20205;-70
2022/11/22 07:18:39;;;;;;;1.80;1.70;;;;;;;;;;5057351;28;20232;-70
2022/11/22 07:21:07;;;;;;;1.75;1.65;;;;;;;;;;5055491;28;20192;-70
2022/11/22 07:23:34;;;;;;;2.00;1.90;;;;;;;;;;5044744;28;20222;-70
2022/11/22 07:26:01;;;;;;;1.80;1.70;;;;;;;;;;5051258;28;20201;-70
2022/11/22 07:28:29;;;;;;;1.80;1.70;;;;;;;;;;5056012;28;20208;-70
2022/11/22 07:31:01;;;;;;;2.10;1.90;;;;;;;;;;5046070;28;20194;-70
2022/11/22 07:33:28;;;;;;;1.95;1.85;;;;;;;;;;5040273;28;20224;-70
2022/11/22 07:35:55;;;;;;;1.90;1.80;;;;;;;;;;5037477;28;20570;-70
2022/11/22 07:38:23;;;;;;;2.00;1.90;;;;;;;;;;5036973;28;20487;-71
2022/11/22 07:40:51;;;;;;;2.10;1.90;;;;;;;;;;5035912;28;20252;-70
2022/11/22 07:43:18;;;;;;;2.05;1.85;;;;;;;;;;5039663;28;20214;-70
2022/11/22 07:45:45;;;;;;;1.75;1.65;;;;;;;;;;5036752;28;20193;-70
2022/11/22 07:48:14;;;;;;;2.10;1.90;;;;;;;;;;5036547;28;20216;-70
2022/11/22 07:50:43;;;;;;;2.30;1.90;;;;;;;;;;5044281;28;20219;-70
2022/11/22 07:53:10;;;;;;;2.10;1.90;;;;;;;;;;5056496;28;20211;-70
2022/11/22 07:55:38;;;;;;;1.92;1.83;;;;;;;;;;5044919;28;20193;-71
2022/11/22 07:58:05;;;;;;;2.22;1.75;;;;;;;;;;5035953;28;20209;-70
2022/11/22 08:00:32;;;;;;;2.35;1.90;;;;;;;;;;5035774;28;20252;-70
2022/11/22 08:03:00;;;;;;;2.00;1.80;;;;;;;;;;5036825;28;20228;-70
2022/11/22 08:05:28;;;;;;;2.17;1.95;;;;;;;;;;5035371;28;20696;-70
2022/11/22 08:07:56;;;;;;;2.00;1.90;;;;;;;;;;5035397;28;20231;-70
2022/11/22 08:10:23;;;;;;;1.95;1.85;;;;;;;;;;5046010;28;20203;-70
2022/11/22 08:12:51;;;;;;;2.15;1.90;;;;;;;;;;5050290;28;20610;-70
2022/11/22 08:15:18;;;;;;;1.98;1.80;;;;;;;;;;5035674;28;20514;-70
2022/11/22 08:17:45;;;;;;;2.17;2.00;;;;;;;;;;5037042;28;20300;-70
2022/11/22 08:20:13;;;;;;;2.15;2.00;;;;;;;;;;5036388;28;20202;-70
2022/11/22 08:22:42;;;;;;;2.55;2.33;;;;;;;;;;5038702;28;20251;-70
2022/11/22 08:25:12;;;;;;;2.40;2.20;;;;;;;;;;5046794;28;20202;-70
2022/11/22 08:27:40;;;;;;;2.60;2.40;;;;;;;;;;5034499;28;20260;-70
2022/11/22 08:30:08;;;;;;;2.50;2.30;;;;;;;;;;5035378;28;20281;-70
2022/11/22 08:32:35;;;;;;;2.45;2.25;;;;;;;;;;5037941;28;20327;-70
2022/11/22 08:35:03;;;;;;;2.60;2.40;;;;;;;;;;5054652;28;20208;-70
2022/11/22 08:37:30;;;;;;;2.72;2.53;;;;;;;;;;5054338;28;20228;-70
2022/11/22 08:39:59;;;;;;;2.95;2.47;;;;;;;;;;5054652;28;20204;-71
2022/11/22 08:42:26;;;;;;;2.80;2.50;;;;;;;;;;5054416;28;20235;-70
2022/11/22 08:44:54;;;;;;;3.00;2.70;;;;;;;;;;5035277;28;20635;-70
2022/11/22 08:47:21;;;;;;;3.35;2.75;;;;;;;;;;5053142;28;20197;-70
2022/11/22 08:49:49;;;;;;;2.70;2.50;;;;;;;;;;5054715;28;20211;-70
2022/11/22 08:52:16;;;;;;;2.50;2.30;;;;;;;;;;5055214;28;20209;-71
2022/11/22 08:54:46;;;;;;;2.55;2.20;;;;;;;;;;5037766;28;20208;-70
2022/11/22 08:57:15;;;;;;;3.00;2.38;;;;;;;;;;5053341;28;20642;-71
2022/11/22 08:59:43;;;;;;;2.47;2.28;;;;;;;;;;5047666;28;20229;-71
2022/11/22 09:02:10;;;;;;;2.80;2.58;;;;;;;;;;5035102;28;20590;-70
2022/11/22 09:04:38;;;;;;;2.60;2.20;;;;;;;;;;5053248;28;20201;-70
2022/11/22 09:07:05;;;;;;;2.60;2.00;;;;;;;;;;5037121;28;20206;-70
2022/11/22 09:09:33;;;;;;;2.55;2.35;;;;;;;;;;5049081;28;20201;-71
2022/11/22 09:12:01;;;;;;;3.30;2.47;;;;;;;;;;5054083;28;20616;-71
2022/11/22 09:14:29;;;;;;;3.90;2.38;;;;;;;;;;5038105;28;20194;-70
2022/11/22 09:16:57;;;;;;;2.40;2.20;;;;;;;;;;5050066;28;20197;-70
2022/11/22 09:19:24;;;;;;;2.63;2.42;;;;;;;;;;5054128;28;20211;-70
2022/11/22 09:21:51;;;;;;;2.20;2.00;;;;;;;;;;5052666;28;20201;-70
2022/11/22 09:24:19;;;;;;;2.17;1.98;;;;;;;;;;5039009;28;20225;-71
2022/11/22 09:26:46;;;;;;;4.00;3.50;;;;;;;;;;5034864;28;20229;-71
2022/11/22 09:29:14;;;;;;;3.40;3.10;;;;;;;;;;5036714;28;20198;-70
2022/11/22 09:31:43;;;;;;;3.28;2.80;;;;;;;;;;5043600;28;20263;-71
2022/11/22 09:34:10;;;;;;;14.70;13.30;;;;;;;;;;5040533;28;20197;-71
2022/11/22 09:36:38;;;;;;;39.95;35.95;;;;;;;;;;5034337;28;20206;-70
2022/11/22 09:39:05;;;;;;;25.42;23.05;;;;;;;;;;5038745;28;20208;-71
2022/11/22 09:41:48;;;;;;;22.35;20.00;;;;;;;;;;5050899;28;20197;-71
2022/11/22 09:44:19;;;;;;;20.05;17.95;;;;;;;;;;5045613;28;20502;-70
2022/11/22 09:46:52;;;;;;;18.98;17.05;;;;;;;;;;5034494;28;20212;-71
2022/11/22 09:49:37;;;;;;;18.08;16.38;;;;;;;;;;5033914;28;20256;-71
2022/11/22 09:52:06;;;;;;;17.35;15.32;;;;;;;;;;5033810;28;20564;-71
2022/11/22 09:54:39;;;;;;;15.98;14.38;;;;;;;;;;5045584;28;20194;-71
2022/11/22 09:57:10;;;;;;;15.27;13.77;;;;;;;;;;5040835;28;20193;-71
2022/11/22 09:59:38;;;;;;;14.27;12.77;;;;;;;;;;5037747;28;20235;-71
2022/11/22 10:02:08;;;;;;;14.13;12.77;;;;;;;;;;5037922;28;20201;-71
2022/11/22 10:04:37;;;;;;;13.48;12.18;;;;;;;;;;5037141;28;20694;-71
2022/11/22 10:07:07;;;;;;;13.68;12.38;;;;;;;;;;5040982;28;20682;-71
2022/11/22 10:09:37;;;;;;;12.30;11.13;;;;;;;;;;5048816;28;20587;-71
2022/11/22 10:12:07;;;;;;;12.15;10.93;;;;;;;;;;5052310;28;20211;-71
2022/11/22 10:14:38;;;;;;;10.90;9.80;;;;;;;;;;5037803;28;20748;-71
2022/11/22 10:17:14;;;;;;;11.05;9.88;;;;;;;;;;5041782;28;20196;-71
2022/11/22 10:19:45;;;;;;;10.40;9.40;;;;;;;;;;5044956;28;20280;-71
2022/11/22 10:22:14;;;;;;;10.10;9.10;;;;;;;;;;5036729;28;20197;-71
2022/11/22 10:24:41;;;;;;;9.80;8.95;;;;;;;;;;5035880;28;20229;-71
2022/11/22 10:27:12;;;;;;;9.23;8.35;;;;;;;;;;5034644;28;20201;-71
2022/11/22 10:29:42;;;;;;;8.48;7.68;;;;;;;;;;5032051;28;20550;-71
2022/11/22 10:32:15;;;;;;;7.97;7.28;;;;;;;;;;5033286;28;20742;-71
2022/11/22 10:34:49;;;;;;;9.10;8.20;;;;;;;;;;5040526;28;20211;-71
2022/11/22 10:37:18;;;;;;;8.27;7.47;;;;;;;;;;5032034;28;20189;-71
2022/11/22 10:39:54;;;;;;;7.95;7.25;;;;;;;;;;5032535;28;20206;-71
2022/11/22 10:42:27;;;;;;;7.75;7.05;;;;;;;;;;5032762;28;20193;-71
2022/11/22 10:44:59;;;;;;;44.45;40.65;;;;;;;;;;5049456;28;20225;-71
2022/11/22 10:47:34;;;;;;;32.58;29.88;;;;;;;;;;5050632;28;20205;-71
2022/11/22 10:50:04;;;;;;;27.23;24.73;;;;;;;;;;5047167;28;20216;-71
2022/11/22 10:52:34;;;;;;;27.50;25.10;;;;;;;;;;5052155;28;20637;-71
2022/11/22 10:55:10;;;;;;;25.73;23.52;;;;;;;;;;5046252;28;20198;-71
2022/11/22 10:57:41;;;;;;;25.30;23.15;;;;;;;;;;5056452;28;20212;-70
2022/11/22 11:00:19;;;;;;;22.83;20.92;;;;;;;;;;5036827;28;20664;-71
2022/11/22 11:03:00;;;;;;;22.25;20.48;;;;;;;;;;5035959;28;20521;-70
2022/11/22 11:05:31;;;;;;;21.00;19.27;;;;;;;;;;5035550;28;20205;-71
2022/11/22 11:07:58;;;;;;;19.85;18.15;;;;;;;;;;5038126;28;20198;-71
2022/11/22 11:10:28;;;;;;;18.73;17.13;;;;;;;;;;5035974;28;20208;-71
2022/11/22 11:12:57;;;;;;;17.73;16.10;;;;;;;;;;5035683;28;20212;-71
2022/11/22 11:15:28;;;;;;;16.88;15.38;;;;;;;;;;5034608;28;20204;-71
2022/11/22 11:17:59;;;;;;;15.93;14.52;;;;;;;;;;5042753;28;20500;-71
2022/11/22 11:20:27;;;;;;;15.85;14.38;;;;;;;;;;5041312;28;20209;-71
2022/11/22 11:22:55;;;;;;;15.27;13.98;;;;;;;;;;5035879;28;20714;-71
2022/11/22 11:25:30;;;;;;;14.90;13.70;;;;;;;;;;5035564;28;20212;-71
2022/11/22 11:27:59;;;;;;;13.70;12.60;;;;;;;;;;5042407;28;20196;-71
2022/11/22 11:30:26;;;;;;;13.45;12.35;;;;;;;;;;5038969;28;20236;-71
2022/11/22 11:32:54;;;;;;;12.35;11.25;;;;;;;;;;5036880;28;20212;-71
2022/11/22 11:35:25;;;;;;;12.07;11.00;;;;;;;;;;5041562;28;20197;-70
2022/11/22 11:37:53;;;;;;;12.45;10.85;;;;;;;;;;5036200;28;20198;-71
2022/11/22 11:40:27;;;;;;;11.43;10.38;;;;;;;;;;5042811;28;20582;-70
2022/11/22 11:43:10;;;;;;;10.77;9.88;;;;;;;;;;5037186;28;20208;-70
2022/11/22 11:45:37;;;;;;;10.73;9.82;;;;;;;;;;5051922;28;20640;-71
2022/11/22 11:48:05;;;;;;;10.05;8.80;;;;;;;;;;5052455;28;20200;-71
2022/11/22 11:50:33;;;;;;;9.48;8.68;;;;;;;;;;5041132;28;20198;-71
2022/11/22 11:53:04;;;;;;;9.18;8.43;;;;;;;;;;5035547;28;20240;-70
2022/11/22 11:55:34;;;;;;;9.13;8.43;;;;;;;;;;5035125;28;20206;-70
2022/11/22 11:58:02;;;;;;;9.20;8.40;;;;;;;;;;5042749;28;20761;-71
2022/11/22 12:00:39;;;;;;;8.55;7.75;;;;;;;;;;5053452;28;20354;-71
2022/11/22 12:03:07;;;;;;;8.18;7.47;;;;;;;;;;5042947;28;20197;-70
2022/11/22 12:05:36;;;;;;;8.63;7.88;;;;;;;;;;5036829;28;20198;-70
2022/11/22 12:08:03;;;;;;;8.25;7.55;;;;;;;;;;5048291;28;20212;-70
2022/11/22 12:10:32;;;;;;;7.72;7.03;;;;;;;;;;5035148;28;20300;-71
2022/11/22 12:13:02;;;;;;;7.75;7.00;;;;;;;;;;5033573;28;20260;-71
2022/11/22 12:15:33;;;;;;;7.68;6.90;;;;;;;;;;5034289;28;20194;-70
2022/11/22 12:18:05;;;;;;;7.88;7.18;;;;;;;;;;5034661;28;20213;-70
2022/11/22 12:20:42;;;;;;;6.80;6.30;;;;;;;;;;5049110;28;20193;-70
2022/11/22 12:23:15;;;;;;;7.50;6.90;;;;;;;;;;5040152;28;20244;-70
2022/11/22 12:25:43;;;;;;;7.20;6.60;;;;;;;;;;5049480;28;20193;-71
2022/11/22 12:28:18;;;;;;;6.97;6.38;;;;;;;;;;5053500;28;20197;-70
2022/11/22 12:30:47;;;;;;;6.50;5.90;;;;;;;;;;5054547;28;20208;-70
2022/11/22 12:33:18;;;;;;;6.30;5.80;;;;;;;;;;5053593;28;20284;-71
2022/11/22 12:35:47;;;;;;;6.13;5.53;;;;;;;;;;5053208;28;20204;-71
2022/11/22 12:38:17;;;;;;;6.43;5.82;;;;;;;;;;5037371;28;20202;-71
2022/11/22 12:40:46;;;;;;;6.05;5.50;;;;;;;;;;5034558;28;20599;-71
2022/11/22 12:43:17;;;;;;;5.90;5.40;;;;;;;;;;5038242;28;20211;-71
2022/11/22 12:45:47;;;;;;;6.40;5.80;;;;;;;;;;5053816;28;20617;-70
2022/11/22 12:48:17;;;;;;;5.78;5.28;;;;;;;;;;5053503;28;20201;-70
2022/11/22 12:50:45;;;;;;;5.47;5.07;;;;;;;;;;5052760;28;20197;-71
2022/11/22 12:53:15;;;;;;;5.65;5.15;;;;;;;;;;5050700;28;20609;-70
2022/11/22 12:55:46;;;;;;;5.57;5.07;;;;;;;;;;5054680;28;20201;-71
2022/11/22 12:58:19;;;;;;;5.65;5.18;;;;;;;;;;5044004;28;20618;-71
2022/11/22 13:00:54;;;;;;;5.30;4.90;;;;;;;;;;5033713;28;20234;-71
2022/11/22 13:03:24;;;;;;;4.90;4.45;;;;;;;;;;5046807;28;20234;-71
2022/11/22 13:05:53;;;;;;;5.03;4.63;;;;;;;;;;5034498;28;20198;-71
2022/11/22 13:08:25;;;;;;;5.57;5.07;;;;;;;;;;5041269;28;20205;-71
2022/11/22 13:10:54;;;;;;;4.82;4.43;;;;;;;;;;5052609;28;20212;-71
2022/11/22 13:13:23;;;;;;;5.18;4.68;;;;;;;;;;5052363;28;20208;-70
2022/11/22 13:15:52;;;;;;;4.75;4.35;;;;;;;;;;5052802;28;20197;-70
2022/11/22 13:18:19;;;;;;;5.53;4.40;;;;;;;;;;5052098;28;20201;-70
2022/11/22 13:20:52;;;;;;;4.63;4.22;;;;;;;;;;5052990;28;20211;-71
2022/11/22 13:23:28;;;;;;;4.68;4.28;;;;;;;;;;5051435;28;20208;-70
2022/11/22 13:26:03;;;;;;;4.90;4.50;;;;;;;;;;5051010;28;20228;-70
2022/11/22 13:28:34;;;;;;;4.72;4.32;;;;;;;;;;5039653;28;20690;-70
2022/11/22 13:31:06;;;;;;;4.22;3.92;;;;;;;;;;5042541;28;20213;-71
2022/11/22 13:33:34;;;;;;;5.03;4.53;;;;;;;;;;5033033;28;20202;-71
2022/11/22 13:36:20;;;;;;;4.32;4.00;;;;;;;;;;5033093;28;20212;-71
2022/11/22 13:38:49;;;;;;;4.50;4.10;;;;;;;;;;5033872;28;20203;-71
2022/11/22 13:41:28;;;;;;;4.70;4.20;;;;;;;;;;5052417;28;20258;-71
2022/11/22 13:43:56;;;;;;;4.57;4.18;;;;;;;;;;5050276;28;20207;-71
2022/11/22 13:46:51;;;;;;;4.63;4.22;;;;;;;;;;5033206;28;20197;-71
2022/11/22 13:49:29;;;;;;;4.50;4.10;;;;;;;;;;4986611;28;20220;-70
2022/11/22 13:51:57;;;;;;;3.85;3.47;;;;;;;;;;5043763;28;20273;-70
2022/11/22 13:54:39;;;;;;;4.45;3.72;;;;;;;;;;5049505;28;20189;-71
2022/11/22 13:57:26;;;;;;;4.80;4.20;;;;;;;;;;5033560;28;20208;-71
2022/11/22 14:00:11;;;;;;;3.95;3.65;;;;;;;;;;5032417;28;20255;-70
2022/11/22 14:02:40;;;;;;;4.30;3.90;;;;;;;;;;5049215;28;20197;-70
2022/11/22 14:05:18;;;;;;;3.90;3.50;;;;;;;;;;5053435;28;20256;-71
2022/11/22 14:07:46;;;;;;;4.28;3.88;;;;;;;;;;5052370;28;20211;-70
2022/11/22 14:10:32;;;;;;;3.97;3.63;;;;;;;;;;5043140;28;20201;-71
2022/11/22 14:13:26;;;;;;;5.30;3.88;;;;;;;;;;5032650;28;20237;-71
2022/11/22 14:16:18;;;;;;;4.07;3.67;;;;;;;;;;4987071;28;20213;-71
2022/11/22 14:18:57;;;;;;;3.70;3.40;;;;;;;;;;5017638;28;20642;-71
2022/11/22 14:21:39;;;;;;;4.10;3.80;;;;;;;;;;5033649;28;20229;-70
2022/11/22 14:24:11;;;;;;;3.90;3.60;;;;;;;;;;5033091;28;20220;-71
2022/11/22 14:26:45;;;;;;;3.90;3.60;;;;;;;;;;5036924;28;20208;-71
2022/11/22 14:29:41;;;;;;;3.97;3.58;;;;;;;;;;5036390;28;20211;-71
2022/11/22 14:32:15;;;;;;;4.13;3.70;;;;;;;;;;5036373;28;20832;-70
2022/11/22 14:34:57;;;;;;;3.80;3.50;;;;;;;;;;5036826;28;20206;-71
2022/11/22 14:37:45;;;;;;;3.78;3.47;;;;;;;;;;5034881;28;20197;-71
2022/11/22 14:40:30;;;;;;;3.78;3.47;;;;;;;;;;5045575;28;20631;-70
2022/11/22 14:43:04;;;;;;;3.83;3.53;;;;;;;;;;5039477;28;20301;-70
2022/11/22 14:45:41;;;;;;;3.90;3.60;;;;;;;;;;5036510;28;20235;-71
2022/11/22 14:48:14;;;;;;;3.63;3.33;;;;;;;;;;5053889;28;20703;-70
2022/11/22 14:50:44;;;;;;;3.60;3.30;;;;;;;;;;5055142;28;20193;-71
2022/11/22 14:53:19;;;;;;;4.03;3.72;;;;;;;;;;5055637;28;20602;-70
2022/11/22 14:55:47;;;;;;;4.22;3.38;;;;;;;;;;5054855;28;20199;-71
2022/11/22 14:58:22;;;;;;;3.75;3.45;;;;;;;;;;5035952;28;20692;-70
2022/11/22 15:00:56;;;;;;;3.80;3.50;;;;;;;;;;5035422;28;20233;-70
2022/11/22 15:03:42;;;;;;;3.90;3.60;;;;;;;;;;5049367;28;20200;-70
2022/11/22 15:06:20;;;;;;;3.70;3.40;;;;;;;;;;5035562;28;20660;-71
2022/11/22 15:08:51;;;;;;;3.40;3.15;;;;;;;;;;5035779;28;20213;-71
2022/11/22 15:11:33;;;;;;;3.60;3.30;;;;;;;;;;5035402;28;20590;-71
2022/11/22 15:14:13;;;;;;;3.55;3.25;;;;;;;;;;5038237;28;20207;-71